Time;durP1;ratioP1;P1;durP2;ratioP2;P2;SDS_P1;SDS_P2;PMS_P1;PMS_P2;Temp;Humidity;BMP_temperature;BMP_pressure;BME280_temperature;BME280_humidity;BME280_pressure;Samples;Min_cycle;Max_cycle;Signal;HPM_P1;HPM_P2
2022/06/04 00:01:10;;;;;;;;;;;;;;;22.28;40.89;101922.72;5044061;28;19935;-59
2022/06/04 00:03:35;;;;;;;;;;;;;;;22.27;40.71;101920.94;5030387;28;19925;-60
2022/06/04 00:06:03;;;;;;;;;;;;;;;22.27;40.88;101918.31;5040746;28;19916;-60
2022/06/04 00:08:32;;;;;;;;;;;;;;;22.27;40.94;101920.94;5030177;28;19939;-58
2022/06/04 00:16:29;;;;;;;;;;;;;;;22.27;41.05;101926.19;5050302;28;19937;-57
2022/06/04 00:18:55;;;;;;;;;;;;;;;22.26;40.95;101924.41;5043847;28;20392;-58
2022/06/04 00:21:20;;;;;;;;;;;;;;;22.26;41.04;101922.66;5041935;28;19912;-58
2022/06/04 00:23:49;;;;;;;;;;;;;;;22.28;40.95;101927.97;5037235;28;19977;-56
2022/06/04 00:26:18;;;;;;;;;;;;;;;22.27;41.09;101926.19;5045286;28;20308;-56
2022/06/04 00:28:46;;;;;;;;;;;;;;;22.25;40.89;101923.50;5030844;28;19916;-58
2022/06/04 00:31:17;;;;;;;;;;;;;;;22.26;40.76;101919.16;5034267;28;19916;-59
2022/06/04 00:33:48;;;;;;;;;;;;;;;22.26;40.74;101924.41;5076801;28;19920;-57
2022/06/04 00:36:13;;;;;;;;;;;;;;;22.26;41.08;101929.66;5050080;28;19923;-57
2022/06/04 00:38:41;;;;;;;;;;;;;;;22.24;40.92;101920.88;5029877;28;19913;-58
2022/06/04 00:41:28;;;;;;;;;;;;;;;22.25;40.68;101927.91;5034007;28;19912;-58
2022/06/04 00:43:56;;;;;;;;;;;;;;;22.25;40.99;101922.66;5045353;28;20015;-56
2022/06/04 00:46:31;;;;;;;;;;;;;;;22.25;41.01;101927.91;5062677;28;20361;-59
2022/06/04 00:48:56;;;;;;;;;;;;;;;22.24;41.17;101929.63;5063039;28;20007;-59
2022/06/04 00:51:23;;;;;;;;;;;;;;;22.25;40.89;101933.13;5031716;28;19924;-59
2022/06/04 00:53:48;;;;;;;;;;;;;;;22.26;40.84;101934.91;5044960;28;19970;-58
2022/06/04 00:56:16;;;;;;;;;;;;;;;22.25;40.95;101934.00;5027538;28;19916;-58
2022/06/04 00:58:42;;;;;;;;;;;;;;;22.25;40.83;101933.13;5060949;28;20280;-57
2022/06/04 01:01:14;;;;;;;;;;;;;;;22.26;41.01;101934.91;5062715;28;19912;-52
2022/06/04 01:03:47;;;;;;;;;;;;;;;22.26;40.66;101934.91;5045064;28;19921;-58
2022/06/04 01:06:16;;;;;;;;;;;;;;;22.25;40.97;101926.13;5062310;28;20296;-58
2022/06/04 01:08:47;;;;;;;;;;;;;;;22.24;40.93;101920.88;5051768;28;19962;-55
2022/06/04 01:11:15;;;;;;;;;;;;;;;22.24;41.08;101920.88;5046474;28;20089;-57
2022/06/04 01:13:43;;;;;;;;;;;;;;;22.25;41.01;101917.41;5065863;28;19919;-59
2022/06/04 01:16:09;;;;;;;;;;;;;;;22.24;40.93;101910.38;5073285;28;20384;-58
2022/06/04 01:18:52;;;;;;;;;;;;;;;22.24;41.09;101919.13;5066189;28;19913;-58
2022/06/04 01:21:29;;;;;;;;;;;;;;;22.23;40.90;101919.97;5032775;28;19939;-59
2022/06/04 01:24:03;;;;;;;;;;;;;;;22.24;40.90;101918.25;5067403;28;20264;-58
2022/06/04 01:27:01;;;;;;;;;;;;;;;22.23;41.05;101904.22;5071675;28;19920;-58
2022/06/04 01:29:44;;;;;;;;;;;;;;;22.23;41.18;101914.72;5023804;28;19920;-58
2022/06/04 01:32:30;;;;;;;;;;;;;;;22.23;41.18;101913.84;5057595;28;19916;-59
2022/06/04 01:35:01;;;;;;;;;;;;;;;22.24;40.92;101910.38;5046204;28;20309;-59
2022/06/04 01:37:38;;;;;;;;;;;;;;;22.23;41.01;101913.84;5052124;28;19913;-59
2022/06/04 01:42:54;;;;;;;;;;;;;;;22.23;41.03;101921.72;5041218;28;19962;-60
2022/06/04 01:45:23;;;;;;;;;;;;;;;22.22;40.84;101915.56;5051664;28;19947;-59
2022/06/04 01:47:48;;;;;;;;;;;;;;;22.23;40.68;101913.84;5032433;28;20358;-59
2022/06/04 01:50:17;;;;;;;;;;;;;;;22.22;40.63;101918.19;5046560;28;19966;-59
2022/06/04 01:52:42;;;;;;;;;;;;;;;22.22;41.00;101912.94;5057472;28;20365;-57
2022/06/04 01:55:11;;;;;;;;;;;;;;;22.22;40.99;101917.34;5057156;28;19916;-57
2022/06/04 01:57:44;;;;;;;;;;;;;;;22.22;40.91;101912.09;5056291;28;20281;-58
2022/06/04 02:00:41;;;;;;;;;;;;;;;22.21;40.87;101911.19;5046300;28;20385;-58
2022/06/04 02:03:13;;;;;;;;;;;;;;;22.22;40.98;101904.22;5016787;28;20267;-58
2022/06/04 02:05:41;;;;;;;;;;;;;;;22.23;41.05;101908.59;5049525;28;19966;-58
2022/06/04 02:08:09;;;;;;;;;;;;;;;22.22;40.64;101906.84;5030619;28;19928;-58
2022/06/04 02:10:45;;;;;;;;;;;;;;;22.22;40.97;101906.84;5048686;28;19912;-60
2022/06/04 02:13:13;;;;;;;;;;;;;;;22.23;41.00;101908.59;5037998;28;19912;-56
2022/06/04 02:16:01;;;;;;;;;;;;;;;22.22;40.92;101901.59;5033610;28;19955;-58
2022/06/04 02:18:29;;;;;;;;;;;;;;;22.22;41.05;101906.84;5047935;28;20288;-58
2022/06/04 02:20:54;;;;;;;;;;;;;;;22.21;41.03;101905.06;5047741;28;19967;-56
2022/06/04 02:23:22;;;;;;;;;;;;;;;22.21;41.06;101905.06;5035872;28;19952;-58
2022/06/04 02:25:47;;;;;;;;;;;;;;;22.21;40.91;101905.94;5045266;28;20394;-58
2022/06/04 02:28:12;;;;;;;;;;;;;;;22.20;41.06;101909.41;5030958;28;19999;-58
2022/06/04 02:30:50;;;;;;;;;;;;;;;22.20;40.85;101898.03;5031465;28;19946;-59
2022/06/04 02:33:25;;;;;;;;;;;;;;;22.20;40.56;101898.03;5049489;28;19917;-58
2022/06/04 02:35:56;;;;;;;;;;;;;;;22.20;40.87;101903.28;5049473;28;19916;-59
2022/06/04 02:38:27;;;;;;;;;;;;;;;22.20;40.83;101895.44;5050282;28;19916;-58
2022/06/04 02:40:55;;;;;;;;;;;;;;;22.21;40.81;101899.81;5053568;28;20457;-55
2022/06/04 02:43:34;;;;;;;;;;;;;;;22.21;40.79;101905.06;5046500;28;20428;-57
2022/06/04 02:45:59;;;;;;;;;;;;;;;22.22;40.89;101912.09;5047239;28;19916;-58
2022/06/04 02:48:26;;;;;;;;;;;;;;;22.17;41.00;101902.38;5066911;28;20003;-57
2022/06/04 02:50:53;;;;;;;;;;;;;;;22.18;41.04;101904.16;5053833;28;19923;-56
2022/06/04 02:53:21;;;;;;;;;;;;;;;22.20;41.04;101908.53;5030981;28;19920;-57
2022/06/04 02:55:49;;;;;;;;;;;;;;;22.20;41.12;101909.41;5050192;28;19947;-56
2022/06/04 02:58:18;;;;;;;;;;;;;;;22.20;41.14;101905.91;5035370;28;20021;-57
2022/06/04 03:00:43;;;;;;;;;;;;;;;22.21;41.06;101916.44;5077277;28;20140;-58
2022/06/04 03:03:13;;;;;;;;;;;;;;;22.22;40.97;101919.97;5032265;28;20003;-57
2022/06/04 03:05:39;;;;;;;;;;;;;;;22.22;40.94;101922.59;5048086;28;19920;-58
2022/06/04 03:08:07;;;;;;;;;;;;;;;22.22;40.92;101925.19;5046983;28;19923;-58
2022/06/04 03:10:35;;;;;;;;;;;;;;;22.20;41.00;101914.66;5055706;28;20277;-58
2022/06/04 03:13:04;;;;;;;;;;;;;;;22.21;40.97;101920.81;5051838;28;19916;-58
2022/06/04 03:15:32;;;;;;;;;;;;;;;22.20;41.07;101929.53;5036900;28;20171;-58
2022/06/04 03:18:00;;;;;;;;;;;;;;;22.20;41.14;101929.53;5029274;28;19934;-58
2022/06/04 03:20:29;;;;;;;;;;;;;;;22.20;40.99;101922.53;5026803;28;19970;-57
2022/06/04 03:22:57;;;;;;;;;;;;;;;22.20;40.95;101919.91;5067148;28;19912;-59
2022/06/04 03:25:22;;;;;;;;;;;;;;;22.20;41.08;101929.53;5030081;28;19962;-59
2022/06/04 03:27:50;;;;;;;;;;;;;;;22.18;40.94;101933.00;5063910;28;19916;-59
2022/06/04 03:30:16;;;;;;;;;;;;;;;22.20;41.12;101935.66;5034321;28;19974;-59
2022/06/04 03:32:43;;;;;;;;;;;;;;;22.20;41.14;101940.03;5051904;28;20377;-59
2022/06/04 03:35:09;;;;;;;;;;;;;;;22.21;41.07;101941.81;5034862;28;19928;-59
2022/06/04 03:37:35;;;;;;;;;;;;;;;22.20;40.85;101934.78;5068320;28;19916;-59
2022/06/04 03:40:00;;;;;;;;;;;;;;;22.21;41.04;101939.19;5054549;28;19958;-57
2022/06/04 03:42:25;;;;;;;;;;;;;;;22.21;40.91;101942.66;5033902;28;20020;-59
2022/06/04 03:44:53;;;;;;;;;;;;;;;22.20;40.94;101950.53;5053425;28;19924;-57
2022/06/04 03:47:18;;;;;;;;;;;;;;;22.21;41.16;101957.53;5038359;28;20347;-57
2022/06/04 03:49:49;;;;;;;;;;;;;;;22.22;41.19;101954.06;5024649;28;19947;-58
2022/06/04 03:52:17;;;;;;;;;;;;;;;22.22;40.91;101948.81;5025689;28;19913;-59
2022/06/04 03:54:54;;;;;;;;;;;;;;;22.22;41.10;101954.06;5045824;28;19912;-59
2022/06/04 03:57:41;;;;;;;;;;;;;;;22.21;40.95;101957.53;5042293;28;19961;-59
2022/06/04 04:00:22;;;;;;;;;;;;;;;22.21;40.99;101962.78;5051194;28;20284;-56
2022/06/04 04:02:54;;;;;;;;;;;;;;;22.21;40.91;101968.91;5052188;28;19974;-58
2022/06/04 04:05:21;;;;;;;;;;;;;;;22.21;41.08;101968.03;5030024;28;20016;-60
2022/06/04 04:07:46;;;;;;;;;;;;;;;22.22;41.15;101975.06;5037429;28;19959;-59
2022/06/04 04:10:18;;;;;;;;;;;;;;;22.22;41.29;101975.94;5045682;28;19917;-58
2022/06/04 04:12:43;;;;;;;;;;;;;;;22.22;41.12;101990.81;5068855;28;19982;-58
2022/06/04 04:15:09;;;;;;;;;;;;;;;22.22;41.24;101975.06;5050793;28;20353;-58
2022/06/04 04:17:39;;;;;;;;;;;;;;;22.22;41.04;101975.06;5053327;28;19928;-59
2022/06/04 04:20:10;;;;;;;;;;;;;;;22.22;41.04;101981.19;5026517;28;19936;-57
2022/06/04 04:22:38;;;;;;;;;;;;;;;22.22;40.95;101980.31;5030217;28;19971;-57
2022/06/04 04:25:04;;;;;;;;;;;;;;;22.23;40.98;101976.84;5047535;28;19916;-58
2022/06/04 04:27:30;;;;;;;;;;;;;;;22.22;41.05;101968.06;5047544;28;19982;-56
2022/06/04 04:30:00;;;;;;;;;;;;;;;22.22;40.91;101969.81;5025842;28;20353;-57
2022/06/04 04:32:26;;;;;;;;;;;;;;;22.21;41.11;101963.66;5053860;28;20418;-56
2022/06/04 04:34:51;;;;;;;;;;;;;;;22.22;40.87;101954.06;5040735;28;19913;-59
2022/06/04 04:37:17;;;;;;;;;;;;;;;22.23;41.05;101955.84;5036368;28;20031;-57
2022/06/04 04:39:42;;;;;;;;;;;;;;;22.23;41.12;101950.59;5037358;28;19948;-59
2022/06/04 04:42:07;;;;;;;;;;;;;;;22.23;40.80;101950.59;5046849;28;20013;-57
2022/06/04 04:44:32;;;;;;;;;;;;;;;22.23;40.93;101945.34;5038652;28;19913;-56
2022/06/04 04:46:58;;;;;;;;;;;;;;;22.24;41.06;101941.88;5054476;28;19921;-58
2022/06/04 04:49:25;;;;;;;;;;;;;;;22.24;41.19;101947.13;5049035;28;19916;-58
2022/06/04 04:51:54;;;;;;;;;;;;;;;22.25;41.17;101954.13;5036873;28;20266;-58
2022/06/04 04:54:19;;;;;;;;;;;;;;;22.25;41.02;101955.00;5035118;28;19970;-59
2022/06/04 04:56:45;;;;;;;;;;;;;;;22.26;41.15;101961.16;5071837;28;19932;-58
2022/06/04 04:59:10;;;;;;;;;;;;;;;22.25;41.02;101951.50;5075771;28;19927;-59
2022/06/04 05:01:41;;;;;;;;;;;;;;;22.26;41.05;101945.41;5045737;28;19928;-59
2022/06/04 05:04:06;;;;;;;;;;;;;;;22.26;41.09;101950.66;5050640;28;19955;-59
2022/06/04 05:06:32;;;;;;;;;;;;;;;22.26;41.16;101945.41;5039856;28;19944;-59
2022/06/04 05:08:57;;;;;;;;;;;;;;;22.26;41.10;101946.28;5029607;28;20373;-57
2022/06/04 05:11:23;;;;;;;;;;;;;;;22.27;41.08;101957.69;5046627;28;19956;-59
2022/06/04 05:13:49;;;;;;;;;;;;;;;22.27;40.94;101957.69;5023481;28;19916;-58
2022/06/04 05:16:21;;;;;;;;;;;;;;;22.27;41.27;101957.69;5045035;28;20362;-58
2022/06/04 05:18:49;;;;;;;;;;;;;;;22.27;41.09;101947.19;5039090;28;20262;-58
2022/06/04 05:21:21;;;;;;;;;;;;;;;22.28;41.25;101943.69;5057309;28;19948;-57
2022/06/04 05:23:46;;;;;;;;;;;;;;;22.27;41.28;101942.84;5028829;28;20278;-59
2022/06/04 05:26:11;;;;;;;;;;;;;;;22.28;41.02;101948.94;5031944;28;19919;-58
2022/06/04 05:28:42;;;;;;;;;;;;;;;22.28;41.10;101941.97;5039969;28;20272;-58
2022/06/04 05:31:08;;;;;;;;;;;;;;;22.29;41.06;101950.72;5061932;28;19916;-58
2022/06/04 05:33:33;;;;;;;;;;;;;;;22.29;41.15;101950.72;5033539;28;20039;-58
2022/06/04 05:36:01;;;;;;;;;;;;;;;22.29;41.10;101953.34;5046124;28;19936;-58
2022/06/04 05:38:34;;;;;;;;;;;;;;;22.30;41.31;101952.50;5031535;28;19916;-58
2022/06/04 05:41:00;;;;;;;;;;;;;;;22.30;40.99;101952.50;5073774;28;19919;-57
2022/06/04 05:43:26;;;;;;;;;;;;;;;22.30;41.12;101942.00;5050170;28;20369;-58
2022/06/04 05:46:01;;;;;;;;;;;;;;;22.30;41.20;101942.00;5067287;28;19942;-58
2022/06/04 05:48:27;;;;;;;;;;;;;;;22.29;41.21;101951.63;5045641;28;19912;-56
2022/06/04 05:50:53;;;;;;;;;;;;;;;22.30;41.21;101957.75;5057020;28;20008;-57
2022/06/04 05:53:22;;;;;;;;;;;;;;;22.30;41.31;101957.75;5034553;28;19916;-55
2022/06/04 05:55:48;;;;;;;;;;;;;;;22.30;41.45;101965.63;5029125;28;20274;-56
2022/06/04 05:58:16;;;;;;;;;;;;;;;22.29;41.19;101955.97;5037344;28;19919;-58
2022/06/04 06:00:44;;;;;;;;;;;;;;;22.30;41.45;101968.25;5065745;28;19999;-58
2022/06/04 06:03:12;;;;;;;;;;;;;;;22.29;41.34;101955.97;5048328;28;19920;-58
2022/06/04 06:05:42;;;;;;;;;;;;;;;22.30;41.26;101968.25;5014770;23;19921;-52
2022/06/04 06:08:07;;;;;;;;;;;;;;;22.30;41.22;101957.75;5031323;28;19921;-52
2022/06/04 06:10:32;;;;;;;;;;;;;;;22.30;41.42;101968.25;5049435;28;19961;-47
2022/06/04 06:13:00;;;;;;;;;;;;;;;22.30;41.30;101969.16;5032133;28;20015;-51
2022/06/04 06:15:25;;;;;;;;;;;;;;;22.30;41.32;101963.91;5057220;28;19920;-43
2022/06/04 06:17:50;;;;;;;;;;;;;;;22.30;41.37;101957.75;5066265;28;19913;-45
2022/06/04 06:20:17;;;;;;;;;;;;;;;22.30;41.56;101963.00;5050743;28;19921;-45
2022/06/04 06:22:47;;;;;;;;;;;;;;;22.29;41.21;101967.38;5069858;28;20067;-45
2022/06/04 06:25:16;;;;;;;;;;;;;;;22.29;41.38;101962.13;5066056;28;19939;-43
2022/06/04 06:27:42;;;;;;;;;;;;;;;22.29;41.47;101961.22;5073475;28;19960;-42
2022/06/04 06:30:07;;;;;;;;;;;;;;;22.30;41.38;101973.50;5044589;28;19924;-47
2022/06/04 06:32:33;;;;;;;;;;;;;;;22.30;41.39;101973.50;5026941;28;19919;-43
2022/06/04 06:34:59;;;;;;;;;;;;;;;22.30;41.26;101968.25;5034352;28;19920;-46
2022/06/04 06:37:26;;;;;;;;;;;;;;;22.30;41.63;101973.50;5065776;28;20325;-42
2022/06/04 06:39:56;;;;;;;;;;;;;;;22.27;41.48;101989.16;5070504;28;20354;-41
2022/06/04 06:42:22;;;;;;;;;;;;;;;22.25;41.60;101981.25;5053922;28;19995;-42
2022/06/04 06:44:47;;;;;;;;;;;;;;;22.27;41.85;101983.91;5069737;28;20003;-42
2022/06/04 06:47:12;;;;;;;;;;;;;;;22.28;41.71;101980.44;5027637;28;19917;-42
2022/06/04 06:49:40;;;;;;;;;;;;;;;22.29;41.70;101982.22;5042429;28;19916;-44
2022/06/04 06:52:06;;;;;;;;;;;;;;;22.31;41.74;101991.00;5062042;28;19970;-41
2022/06/04 06:54:35;;;;;;;;;;;;;;;22.31;41.75;101988.38;5049589;28;19916;-42
2022/06/04 06:57:00;;;;;;;;;;;;;;;22.32;42.01;101993.69;5041348;28;19917;-45
2022/06/04 06:59:25;;;;;;;;;;;;;;;22.32;41.85;101998.94;5059113;28;20492;-42
2022/06/04 07:01:53;;;;;;;;;;;;;;;22.32;41.89;101992.78;5053728;28;19912;-48
2022/06/04 07:04:21;;;;;;;;;;;;;;;22.34;41.80;102004.19;5052130;28;19916;-44
2022/06/04 07:06:49;;;;;;;;;;;;;;;22.34;41.69;102001.56;5053371;28;20266;-42
2022/06/04 07:09:19;;;;;;;;;;;;;;;22.33;42.06;102012.91;5047687;28;20281;-44
2022/06/04 07:11:44;;;;;;;;;;;;;;;22.34;41.93;102006.81;5062501;28;20266;-46
2022/06/04 07:14:10;;;;;;;;;;;;;;;22.34;41.99;102017.31;5027376;28;19916;-43
2022/06/04 07:16:35;;;;;;;;;;;;;;;22.35;42.03;102019.09;5029715;28;20358;-41
2022/06/04 07:19:00;;;;;;;;;;;;;;;22.35;42.10;102019.09;5035625;28;20320;-42
2022/06/04 07:21:26;;;;;;;;;;;;;;;22.35;42.16;102024.34;5049329;28;19931;-42
2022/06/04 07:23:51;;;;;;;;;;;;;;;22.35;42.17;102013.84;5049916;28;20050;-44
2022/06/04 07:26:19;;;;;;;;;;;;;;;22.34;42.12;102012.06;5050362;28;19916;-42
2022/06/04 07:28:46;;;;;;;;;;;;;;;22.35;42.16;102013.84;5068393;28;19912;-44
2022/06/04 07:31:11;;;;;;;;;;;;;;;22.35;42.27;102003.34;5059393;28;20015;-41
2022/06/04 07:33:40;;;;;;;;;;;;;;;22.36;42.01;102015.63;5050938;28;19963;-44
2022/06/04 07:36:12;;;;;;;;;;;;;;;22.37;42.17;102017.38;5043137;28;19964;-43
2022/06/04 07:38:40;;;;;;;;;;;;;;;22.35;41.99;102024.34;5041937;28;19986;-44
2022/06/04 07:41:05;;;;;;;;;;;;;;;22.36;42.33;102031.38;5038073;28;20380;-42
2022/06/04 07:43:32;;;;;;;;;;;;;;;22.35;42.02;102032.22;5064545;28;19912;-42
2022/06/04 07:46:00;;;;;;;;;;;;;;;22.37;42.23;102038.38;5049975;28;19917;-47
2022/06/04 07:48:28;;;;;;;;;;;;;;;22.36;42.39;102041.84;5043181;28;19919;-44
2022/06/04 07:50:56;;;;;;;;;;;;;;;22.37;42.02;102041.00;5051694;28;20007;-41
2022/06/04 07:53:21;;;;;;;;;;;;;;;22.37;42.16;102032.25;5043450;28;19950;-41
2022/06/04 07:55:46;;;;;;;;;;;;;;;22.36;42.27;102036.59;5041824;28;20019;-44
2022/06/04 07:58:14;;;;;;;;;;;;;;;22.38;42.45;102040.16;5024728;28;19917;-41
2022/06/04 08:00:39;;;;;;;;;;;;;;;22.37;42.02;102038.38;5054722;28;19917;-44
2022/06/04 08:03:05;;;;;;;;;;;;;;;22.36;41.88;102039.22;5065633;28;20012;-42
2022/06/04 08:05:30;;;;;;;;;;;;;;;22.37;42.07;102041.00;5049078;28;19921;-49
2022/06/04 08:07:58;;;;;;;;;;;;;;;22.36;42.10;102041.00;5031238;28;19916;-43
2022/06/04 08:10:27;;;;;;;;;;;;;;;22.37;41.97;102037.50;5062304;28;20354;-45
2022/06/04 08:12:55;;;;;;;;;;;;;;;22.37;41.98;102033.13;5043991;28;19917;-44
2022/06/04 08:15:21;;;;;;;;;;;;;;;22.39;42.22;102025.31;5034414;28;20399;-45
2022/06/04 08:17:47;;;;;;;;;;;;;;;22.40;42.16;102033.19;5042163;28;20386;-44
2022/06/04 08:20:15;;;;;;;;;;;;;;;22.42;42.50;102039.38;5054388;28;19912;-46
2022/06/04 08:22:40;;;;;;;;;;;;;;;22.44;42.51;102040.28;5044953;28;19931;-45
2022/06/04 08:25:06;;;;;;;;;;;;;;;22.45;42.58;102034.22;5039633;28;19912;-45
2022/06/04 08:27:31;;;;;;;;;;;;;;;22.47;42.66;102045.63;5052027;28;19917;-45
2022/06/04 08:29:56;;;;;;;;;;;;;;;22.47;42.53;102040.38;5058188;28;19919;-50
2022/06/04 08:32:24;;;;;;;;;;;;;;;22.49;43.02;102037.81;5063098;28;19916;-42
2022/06/04 08:34:49;;;;;;;;;;;;;;;22.52;42.77;102047.47;5049459;28;19955;-44
2022/06/04 08:37:15;;;;;;;;;;;;;;;22.53;42.63;102033.50;5045924;28;19912;-44
2022/06/04 08:39:40;;;;;;;;;;;;;;;22.55;42.88;102037.03;5048371;28;19917;-46
2022/06/04 08:42:06;;;;;;;;;;;;;;;22.55;42.95;102037.03;5043235;28;19920;-47
2022/06/04 08:44:36;;;;;;;;;;;;;;;22.26;40.93;102053.88;5063211;28;19986;-46
2022/06/04 08:47:05;;;;;;;;;;;;;;;21.81;40.42;102058.06;5034878;28;19916;-46
2022/06/04 08:49:34;;;;;;;;;;;;;;;21.54;40.14;102053.84;5065161;28;19912;-44
2022/06/04 08:52:04;;;;;;;;;;;;;;;21.46;40.25;102060.59;5061205;28;19931;-49
2022/06/04 09:00:23;;;;;;;;;;;;;;;21.38;41.12;102062.13;5029965;28;19970;-45
2022/06/04 09:03:00;;;;;;;;;;;;;;;21.51;41.03;102053.75;5041496;28;20323;-46
2022/06/04 09:05:29;;;;;;;;;;;;;;;21.71;41.08;102050.78;5059047;28;20011;-46
2022/06/04 09:07:56;;;;;;;;;;;;;;;21.87;41.17;102050.34;5051731;28;19912;-42
2022/06/04 09:10:23;;;;;;;;;;;;;;;21.99;41.27;102051.50;5047969;28;20329;-43
2022/06/04 09:12:49;;;;;;;;;;;;;;;22.05;41.13;102046.41;5049802;28;19916;-46
2022/06/04 09:15:16;;;;;;;;;;;;;;;22.10;41.05;102039.53;5039696;28;19920;-43
2022/06/04 09:17:43;;;;;;;;;;;;;;;22.15;41.22;102037.91;5032569;28;19923;-46
2022/06/04 09:20:14;;;;;;;;;;;;;;;22.19;41.12;102044.09;5049641;28;19916;-43
2022/06/04 09:22:42;;;;;;;;;;;;;;;22.23;41.22;102039.81;5066749;28;20228;-41
2022/06/04 09:25:17;;;;;;;;;;;;;;;22.25;41.23;102046.84;5028161;28;19924;-46
2022/06/04 09:27:50;;;;;;;;;;;;;;;22.29;41.26;102045.19;5048050;28;20011;-41
2022/06/04 09:30:26;;;;;;;;;;;;;;;22.31;41.17;102043.50;5049782;28;19916;-43
2022/06/04 09:32:56;;;;;;;;;;;;;;;22.33;41.20;102047.03;5067951;28;20437;-46
2022/06/04 09:35:28;;;;;;;;;;;;;;;22.33;41.12;102041.78;5053013;28;19916;-42
2022/06/04 09:37:56;;;;;;;;;;;;;;;22.34;41.05;102038.31;5049935;28;20377;-43
2022/06/04 09:40:27;;;;;;;;;;;;;;;22.35;41.01;102047.97;5045333;28;19962;-47
2022/06/04 09:42:52;;;;;;;;;;;;;;;22.36;41.31;102041.84;5030521;28;19916;-47
2022/06/04 09:45:20;;;;;;;;;;;;;;;22.36;41.19;102035.75;5052374;28;19919;-45
2022/06/04 09:47:48;;;;;;;;;;;;;;;22.38;41.21;102050.66;5054618;28;20378;-43
2022/06/04 09:50:18;;;;;;;;;;;;;;;22.40;41.22;102053.31;5035453;28;19953;-46
2022/06/04 09:52:43;;;;;;;;;;;;;;;22.40;41.16;102048.94;5064357;28;19916;-42
2022/06/04 09:55:22;;;;;;;;;;;;;;;22.40;41.02;102046.31;5051994;28;20365;-43
2022/06/04 09:57:58;;;;;;;;;;;;;;;22.40;40.96;102046.31;5054910;28;20375;-47
2022/06/04 10:00:24;;;;;;;;;;;;;;;22.41;41.15;102055.97;5050509;28;19917;-43
2022/06/04 10:02:53;;;;;;;;;;;;;;;22.41;41.13;102061.22;5048763;28;19938;-43
2022/06/04 10:05:19;;;;;;;;;;;;;;;22.42;41.14;102059.50;5071477;28;20065;-43
2022/06/04 10:07:45;;;;;;;;;;;;;;;22.41;41.14;102066.47;5057167;28;20401;-42
2022/06/04 10:10:42;;;;;;;;;;;;;;;22.41;41.31;102066.47;5055211;28;19916;-47
2022/06/04 10:16:03;;;;;;;;;;;;;;;22.42;41.34;102063.00;5055104;28;20364;-42
2022/06/04 10:18:34;;;;;;;;;;;;;;;22.43;41.28;102067.41;5044215;28;20357;-44
2022/06/04 10:21:34;;;;;;;;;;;;;;;22.43;41.18;102061.28;5055829;28;19924;-47
2022/06/04 10:24:00;;;;;;;;;;;;;;;22.43;41.00;102070.03;5013732;28;21432;-48
2022/06/04 10:26:29;;;;;;;;;;;;;;;22.44;41.31;102066.53;5036531;28;19975;-42
2022/06/04 10:29:13;;;;;;;;;;;;;;;22.45;41.13;102063.09;5065655;28;20234;-45
2022/06/04 10:31:48;;;;;;;;;;;;;;;22.46;41.29;102054.38;5067465;28;19928;-44
2022/06/04 10:34:13;;;;;;;;;;;;;;;22.47;41.46;102056.16;5044726;28;19936;-48
2022/06/04 10:36:46;;;;;;;;;;;;;;;22.47;41.13;102045.63;5061638;28;20403;-49
2022/06/04 10:39:16;;;;;;;;;;;;;;;22.47;41.37;102043.00;5057898;28;19944;-45
2022/06/04 10:41:44;;;;;;;;;;;;;;;22.47;41.44;102045.63;5055082;28;19970;-41
2022/06/04 10:44:28;;;;;;;;;;;;;;;22.48;41.42;102038.66;5048757;28;19920;-43
2022/06/04 10:46:56;;;;;;;;;;;;;;;22.49;41.43;102053.56;5041897;28;19967;-41
2022/06/04 10:49:28;;;;;;;;;;;;;;;22.50;41.52;102038.69;5066451;28;19963;-41
2022/06/04 10:52:12;;;;;;;;;;;;;;;22.49;41.62;102047.41;5036399;28;19920;-41
2022/06/04 10:54:42;;;;;;;;;;;;;;;22.50;41.70;102043.94;5070059;28;19912;-49
2022/06/04 10:57:10;;;;;;;;;;;;;;;22.50;41.72;102033.44;5060451;28;19916;-45
2022/06/04 10:59:43;;;;;;;;;;;;;;;22.50;41.74;102038.69;5067650;28;19920;-42
2022/06/04 11:02:27;;;;;;;;;;;;;;;22.51;41.59;102040.47;5038651;28;19913;-42
2022/06/04 11:05:24;;;;;;;;;;;;;;;22.52;41.53;102047.47;5067895;28;20344;-41
2022/06/04 11:07:53;;;;;;;;;;;;;;;22.54;41.58;102040.53;5011282;28;20160;-43
2022/06/04 11:10:24;;;;;;;;;;;;;;;22.54;41.63;102037.91;5043350;28;19916;-44
2022/06/04 11:12:52;;;;;;;;;;;;;;;22.55;42.07;102047.53;5044957;28;19927;-41
2022/06/04 11:15:19;;;;;;;;;;;;;;;22.54;41.56;102040.53;5052586;28;20416;-41
2022/06/04 11:17:47;;;;;;;;;;;;;;;22.55;41.57;102042.28;5053222;28;19913;-43
2022/06/04 11:20:19;;;;;;;;;;;;;;;22.55;41.74;102039.66;5037090;28;20365;-41
2022/06/04 11:22:50;;;;;;;;;;;;;;;22.56;41.50;102044.06;5068537;28;19917;-42
2022/06/04 11:25:24;;;;;;;;;;;;;;;22.56;41.44;102034.47;5055360;28;20467;-42
2022/06/04 11:27:52;;;;;;;;;;;;;;;22.57;41.64;102036.25;5042157;28;19920;-46
2022/06/04 11:30:19;;;;;;;;;;;;;;;22.57;41.19;102031.00;5043485;28;19917;-45
2022/06/04 11:33:01;;;;;;;;;;;;;;;22.58;41.66;102037.09;5056209;28;19917;-40
2022/06/04 11:35:31;;;;;;;;;;;;;;;22.59;41.48;102036.25;5070522;28;19913;-47
2022/06/04 11:38:00;;;;;;;;;;;;;;;22.60;41.67;102030.16;5044914;28;20011;-45
2022/06/04 11:40:31;;;;;;;;;;;;;;;22.61;41.68;102034.56;5050587;28;19913;-43
2022/06/04 11:43:15;;;;;;;;;;;;;;;22.62;41.59;102023.19;5059784;28;19959;-42
2022/06/04 11:45:40;;;;;;;;;;;;;;;22.63;41.67;102035.47;5052601;28;20383;-42
2022/06/04 11:48:17;;;;;;;;;;;;;;;22.63;41.57;102027.59;5059478;28;19956;-43
2022/06/04 11:50:43;;;;;;;;;;;;;;;22.63;41.39;102024.09;5063779;28;19962;-44
2022/06/04 11:53:29;;;;;;;;;;;;;;;22.64;41.51;102021.47;5059705;28;19916;-44
2022/06/04 11:56:02;;;;;;;;;;;;;;;22.65;41.67;102025.88;5069042;28;19992;-43
2022/06/04 11:58:36;;;;;;;;;;;;;;;22.65;41.70;102028.50;5052210;28;20365;-44
2022/06/04 12:01:03;;;;;;;;;;;;;;;22.66;41.74;102030.28;5062572;28;19917;-47
2022/06/04 12:03:28;;;;;;;;;;;;;;;22.66;41.56;102025.03;5042679;28;19919;-46
2022/06/04 12:06:06;;;;;;;;;;;;;;;22.66;41.41;102025.03;5062687;28;19920;-44
2022/06/04 12:08:41;;;;;;;;;;;;;;;22.65;41.53;102018.00;5056795;28;19996;-47
2022/06/04 12:11:12;;;;;;;;;;;;;;;22.67;41.54;102020.69;5041157;28;20392;-43
2022/06/04 12:13:42;;;;;;;;;;;;;;;22.66;41.86;102014.53;5044960;28;19922;-47
2022/06/04 12:16:19;;;;;;;;;;;;;;;22.68;41.58;102015.44;5055092;28;19916;-44
2022/06/04 12:18:50;;;;;;;;;;;;;;;22.70;41.42;102026.88;5042588;28;19947;-42
2022/06/04 12:24:17;;;;;;;;;;;;;;;22.73;41.47;102021.69;5056019;28;19924;-46
2022/06/04 12:26:48;;;;;;;;;;;;;;;22.72;41.53;102017.28;5060726;28;19917;-43
2022/06/04 12:29:29;;;;;;;;;;;;;;;22.72;41.31;102009.41;5028836;28;20392;-43
2022/06/04 12:31:58;;;;;;;;;;;;;;;22.72;41.46;102012.03;5048713;28;19916;-41
2022/06/04 12:34:27;;;;;;;;;;;;;;;22.74;41.36;102014.69;5045220;28;19916;-47
2022/06/04 12:36:55;;;;;;;;;;;;;;;22.74;41.48;102012.06;5067369;28;19924;-42
2022/06/04 12:39:20;;;;;;;;;;;;;;;22.74;41.42;102007.69;5043979;28;19917;-45
2022/06/04 12:41:49;;;;;;;;;;;;;;;22.74;41.41;102012.06;5063839;28;19917;-42
2022/06/04 12:44:24;;;;;;;;;;;;;;;22.74;41.29;102015.56;5062084;28;19924;-46
2022/06/04 12:46:49;;;;;;;;;;;;;;;22.74;41.37;102015.56;5070065;28;20333;-43
2022/06/04 12:49:20;;;;;;;;;;;;;;;22.75;41.27;102013.84;5050746;28;20047;-43
2022/06/04 12:51:46;;;;;;;;;;;;;;;22.75;41.54;102014.72;5040266;28;19919;-47
2022/06/04 12:54:30;;;;;;;;;;;;;;;22.76;41.35;102016.47;5059946;28;19928;-48
2022/06/04 12:56:56;;;;;;;;;;;;;;;22.76;41.57;102011.22;5058861;28;19969;-49
2022/06/04 12:59:42;;;;;;;;;;;;;;;22.77;41.59;102018.25;5036021;28;19916;-42
2022/06/04 13:02:47;;;;;;;;;;;;;;;22.79;41.10;102017.41;5054235;28;20151;-44
2022/06/04 13:05:22;;;;;;;;;;;;;;;22.79;41.32;102020.03;4979799;28;19968;-45
2022/06/04 13:07:55;;;;;;;;;;;;;;;22.80;41.20;102006.03;4987714;28;20045;-44